Terminal Aerodrome Forecast
Issued by NWS Blacksburg, VA

Current Version | Previous Version | Graphics & Text | Print | Product List | Glossary On
Versions: 1 2 3 4 5 6 7 8 9 10 11 12 13 14 15 16 17 18 19 20 21 22 23 24 25 26 27 28 29 30 31 32 33 34 35 36 37 38 39 40 41 42 43 44 45 46 47
000
FTUS41 KRNK 230541 AAA
TAFBLF
TAF AMD
KBLF 230541Z 2306/2406 09007KT 1/2SM FG OVC002
      TEMPO 2306/2310 14010G20KT 2SM -RA BR SCT002 OVC004
     FM231500 15008KT P6SM SCT007 BKN025 OVC040
      TEMPO 2315/2318 BKN007
     FM240000 15008G20KT 4SM -RA BR SCT004 OVC007=

USA.gov is the U.S. government's official web portal to all federal, state and local government web resources and services.